Time;durP1;ratioP1;P1;durP2;ratioP2;P2;SDS_P1;SDS_P2;PMS_P1;PMS_P2;Temp;Humidity;BMP_temperature;BMP_pressure;BME280_temperature;BME280_humidity;BME280_pressure;Samples;Min_cycle;Max_cycle;Signal;HPM_P1;HPM_P2
2022/11/03 00:00:51;;;;;;;6.30;4.17;;;5.30;1.00;;;;;;8414085;28;20239;-70
2022/11/03 00:04:52;;;;;;;9.73;5.40;;;5.30;10.70;;;;;;8395099;28;20231;-69
2022/11/03 00:08:58;;;;;;;7.27;4.70;;;5.30;23.30;;;;;;8399027;28;20224;-70
2022/11/03 00:12:58;;;;;;;7.97;3.97;;;5.20;1.10;;;;;;8417506;28;20187;-70
2022/11/03 00:16:59;;;;;;;7.33;4.37;;;5.20;91.60;;;;;;8416860;28;20239;-69
2022/11/03 00:21:05;;;;;;;7.40;4.03;;;5.10;99.90;;;;;;8402402;28;20184;-69
2022/11/03 00:25:07;;;;;;;6.47;3.60;;;5.10;99.90;;;;;;8419663;28;20246;-70
2022/11/03 00:29:10;;;;;;;5.53;3.70;;;5.10;99.90;;;;;;8401332;28;20188;-70
2022/11/03 00:33:11;;;;;;;8.80;4.00;;;5.00;63.10;;;;;;8402328;28;20189;-69
2022/11/03 00:37:12;;;;;;;10.17;4.60;;;4.90;24.80;;;;;;8419535;28;20254;-69
2022/11/03 00:41:13;;;;;;;5.13;3.87;;;4.80;99.90;;;;;;8418688;28;20199;-69
2022/11/03 00:45:14;;;;;;;5.77;3.40;;;4.80;99.90;;;;;;8419654;28;20184;-70
2022/11/03 00:49:15;;;;;;;5.97;3.77;;;4.70;99.90;;;;;;8401373;28;20184;-70
2022/11/03 00:53:16;;;;;;;5.90;3.67;;;4.60;99.90;;;;;;8402080;28;20291;-70
2022/11/03 00:57:18;;;;;;;6.30;3.60;;;4.50;99.90;;;;;;8416313;28;20207;-69
2022/11/03 01:01:25;;;;;;;7.70;4.67;;;4.40;99.90;;;;;;8400706;28;20194;-69
2022/11/03 01:09:45;;;;;;;6.00;3.30;;;4.30;99.90;;;;;;8416551;28;20282;-70
2022/11/03 01:13:45;;;;;;;6.50;3.63;;;4.30;99.90;;;;;;8419064;28;20184;-70
2022/11/03 01:17:46;;;;;;;7.37;3.77;;;4.20;99.90;;;;;;8418331;28;20180;-70
2022/11/03 01:21:47;;;;;;;8.60;3.90;;;4.20;99.90;;;;;;8415818;28;20211;-70
2022/11/03 01:25:48;;;;;;;5.30;3.73;;;4.10;99.90;;;;;;8421251;28;20471;-70
2022/11/03 01:29:49;;;;;;;5.97;3.20;;;4.00;99.90;;;;;;8396121;28;20206;-70
2022/11/03 01:33:52;;;;;;;4.63;2.73;;;3.90;99.90;;;;;;8400677;28;20187;-70
2022/11/03 01:37:55;;;;;;;4.90;3.23;;;3.90;99.90;;;;;;8417878;28;20279;-70
2022/11/03 01:41:56;;;;;;;7.53;3.17;;;3.80;99.90;;;;;;8417692;28;20199;-70
2022/11/03 01:46:11;;;;;;;7.43;3.20;;;3.80;99.90;;;;;;8417417;28;20411;-69
2022/11/03 01:50:18;;;;;;;6.07;3.37;;;3.80;99.90;;;;;;8414981;28;20194;-70
2022/11/03 01:54:21;;;;;;;7.70;3.60;;;3.90;99.90;;;;;;8418350;28;20617;-71
2022/11/03 01:58:27;;;;;;;9.10;4.30;;;3.90;99.90;;;;;;8398879;28;20203;-70
2022/11/03 02:02:27;;;;;;;5.37;3.10;;;4.00;99.90;;;;;;8417229;28;20201;-70
2022/11/03 02:06:29;;;;;;;4.97;3.07;;;3.90;99.90;;;;;;8416232;28;20235;-70
2022/11/03 02:10:31;;;;;;;10.03;2.80;;;3.90;99.90;;;;;;8416346;28;20271;-70
2022/11/03 02:14:32;;;;;;;4.87;2.57;;;3.90;99.90;;;;;;8400611;28;20203;-70
2022/11/03 02:18:33;;;;;;;5.97;3.30;;;3.90;99.90;;;;;;8417274;28;20206;-71
2022/11/03 02:22:45;;;;;;;6.10;3.07;;;3.90;99.90;;;;;;8417605;28;20243;-69
2022/11/03 02:26:49;;;;;;;6.67;3.03;;;4.00;99.90;;;;;;8416350;28;20182;-70
2022/11/03 02:30:50;;;;;;;7.27;4.13;;;3.90;99.90;;;;;;8413948;28;20439;-70
2022/11/03 02:35:07;;;;;;;9.53;5.27;;;3.80;99.90;;;;;;8415556;28;20206;-71
2022/11/03 02:39:22;;;;;;;9.20;4.47;;;3.70;99.90;;;;;;8411220;28;20185;-70
2022/11/03 02:43:24;;;;;;;14.27;6.30;;;3.40;99.90;;;;;;8399347;28;20740;-70
2022/11/03 02:47:28;;;;;;;10.57;5.73;;;3.20;99.90;;;;;;8398161;28;20277;-70
2022/11/03 02:51:29;;;;;;;14.27;6.70;;;3.00;99.90;;;;;;8389296;28;20648;-70
2022/11/03 02:55:33;;;;;;;14.23;6.37;;;2.80;99.90;;;;;;8397829;28;20212;-70
2022/11/03 02:59:44;;;;;;;12.30;6.33;;;2.60;99.90;;;;;;8412683;28;20196;-70
2022/11/03 03:03:52;;;;;;;11.93;6.17;;;2.50;99.90;;;;;;8416203;28;20208;-70
2022/11/03 03:08:00;;;;;;;13.80;5.77;;;2.30;99.90;;;;;;8410642;28;20185;-70
2022/11/03 03:12:03;;;;;;;10.43;5.57;;;2.20;99.90;;;;;;8410910;28;20299;-69
2022/11/03 03:16:10;;;;;;;11.03;5.97;;;2.10;99.90;;;;;;8395576;28;20208;-69
2022/11/03 03:20:21;;;;;;;10.60;6.03;;;2.00;99.90;;;;;;8414214;28;20184;-68
2022/11/03 03:24:22;;;;;;;8.83;5.43;;;1.90;99.90;;;;;;8397301;28;20187;-68
2022/11/03 03:28:31;;;;;;;10.63;6.23;;;1.80;99.90;;;;;;8414885;28;20620;-68
2022/11/03 03:32:37;;;;;;;9.07;6.20;;;1.70;99.90;;;;;;8414477;28;20188;-68
2022/11/03 03:36:39;;;;;;;8.10;5.30;;;1.60;99.90;;;;;;8414389;28;20219;-67
2022/11/03 03:40:43;;;;;;;8.17;4.47;;;1.50;99.90;;;;;;8413816;28;20472;-68
2022/11/03 03:44:45;;;;;;;7.63;4.60;;;1.40;99.90;;;;;;8413615;28;20188;-68
2022/11/03 03:48:46;;;;;;;5.63;3.90;;;1.30;99.90;;;;;;8413516;28;20184;-69
2022/11/03 03:52:48;;;;;;;7.37;4.70;;;1.20;99.90;;;;;;8396556;28;20195;-69
2022/11/03 03:57:15;;;;;;;8.73;4.47;;;1.10;99.90;;;;;;8395687;28;20208;-68
2022/11/03 04:01:15;;;;;;;8.10;4.53;;;1.10;99.90;;;;;;8412224;28;20176;-69
2022/11/03 04:05:16;;;;;;;8.63;4.33;;;1.00;99.90;;;;;;8395054;28;20454;-69
2022/11/03 04:09:18;;;;;;;9.70;5.13;;;1.10;99.90;;;;;;8411850;28;20208;-69
2022/11/03 04:22:15;;;;;;;18.47;10.83;;;1.10;99.90;;;;;;8414642;28;20261;-69
2022/11/03 04:26:18;;;;;;;11.00;6.90;;;1.00;99.90;;;;;;8413018;28;20181;-69
2022/11/03 04:30:20;;;;;;;10.13;5.90;;;0.90;99.90;;;;;;8393896;28;20319;-70
2022/11/03 04:34:22;;;;;;;9.87;6.03;;;0.80;99.90;;;;;;8393316;28;20212;-68
2022/11/03 04:38:25;;;;;;;8.13;5.53;;;0.80;99.90;;;;;;8411319;28;20187;-68
2022/11/03 04:42:29;;;;;;;9.00;4.57;;;0.70;99.90;;;;;;8393307;28;20230;-68
2022/11/03 04:46:30;;;;;;;7.90;4.40;;;0.60;99.90;;;;;;8409784;28;20195;-69
2022/11/03 04:50:31;;;;;;;7.77;4.73;;;0.50;99.90;;;;;;8391121;28;20187;-68
2022/11/03 04:54:32;;;;;;;8.93;5.17;;;0.50;99.90;;;;;;8393492;28;20427;-68
2022/11/03 04:58:35;;;;;;;8.27;5.63;;;0.40;99.90;;;;;;8414189;28;20207;-69
2022/11/03 05:02:35;;;;;;;8.70;5.07;;;0.40;99.90;;;;;;8417426;28;20205;-68
2022/11/03 05:06:37;;;;;;;11.33;4.97;;;0.40;99.90;;;;;;8399760;28;20176;-68
2022/11/03 05:10:38;;;;;;;7.63;5.20;;;0.40;99.90;;;;;;8405383;28;20185;-68
2022/11/03 05:14:39;;;;;;;9.77;5.10;;;0.30;99.90;;;;;;8398452;28;20237;-68
2022/11/03 05:18:43;;;;;;;8.27;5.17;;;0.30;99.90;;;;;;8399232;28;20181;-69
2022/11/03 05:22:43;;;;;;;6.27;4.47;;;0.30;99.90;;;;;;8418078;28;20183;-68
2022/11/03 05:26:44;;;;;;;6.40;4.07;;;0.20;99.90;;;;;;8399510;28;20238;-68
2022/11/03 05:30:50;;;;;;;6.80;4.77;;;0.20;99.90;;;;;;8416551;28;20176;-68
2022/11/03 05:34:53;;;;;;;9.50;4.20;;;0.20;99.90;;;;;;8416291;28;20242;-68
2022/11/03 05:39:18;;;;;;;7.53;4.83;;;0.20;99.90;;;;;;8399006;28;20252;-68
2022/11/03 05:43:20;;;;;;;8.30;5.90;;;0.20;99.90;;;;;;8398459;28;20234;-68
2022/11/03 05:47:36;;;;;;;8.17;4.93;;;0.20;99.90;;;;;;8417179;28;20183;-68
2022/11/03 05:51:40;;;;;;;6.07;4.00;;;0.20;99.90;;;;;;8396984;28;20584;-68
2022/11/03 05:55:42;;;;;;;5.77;3.97;;;0.10;99.90;;;;;;8398442;28;20222;-69
2022/11/03 05:59:46;;;;;;;8.27;3.90;;;0.10;99.90;;;;;;8397333;28;20210;-68
2022/11/03 06:03:47;;;;;;;6.70;3.97;;;0.10;99.90;;;;;;8399921;28;20231;-68
2022/11/03 06:07:49;;;;;;;5.67;3.77;;;0.00;99.90;;;;;;8398074;28;20192;-68
2022/11/03 06:11:52;;;;;;;6.60;4.43;;;0.00;99.90;;;;;;8417318;28;20181;-68
2022/11/03 06:16:12;;;;;;;9.47;4.77;;;0.00;99.90;;;;;;8397883;28;20419;-68
2022/11/03 06:20:20;;;;;;;9.77;5.60;;;0.10;99.90;;;;;;8416791;28;20177;-68
2022/11/03 06:24:24;;;;;;;13.90;8.10;;;0.20;99.90;;;;;;8396951;28;20208;-68
2022/11/03 06:28:29;;;;;;;18.83;9.07;;;0.30;99.90;;;;;;8397791;28;20190;-67
2022/11/03 06:32:32;;;;;;;14.13;7.90;;;0.50;99.90;;;;;;8393607;28;20193;-68
2022/11/03 06:36:35;;;;;;;15.57;7.27;;;0.60;99.90;;;;;;8394330;28;20208;-69
2022/11/03 06:40:37;;;;;;;14.77;7.20;;;0.80;99.90;;;;;;8395014;28;20204;-69
2022/11/03 06:44:45;;;;;;;14.43;8.43;;;0.90;99.90;;;;;;8395971;28;20189;-69
2022/11/03 06:48:46;;;;;;;26.33;14.60;;;1.10;99.90;;;;;;8414583;28;20512;-68
2022/11/03 06:52:48;;;;;;;15.57;9.70;;;1.30;99.90;;;;;;8396854;28;20180;-72
2022/11/03 06:56:49;;;;;;;11.53;7.10;;;1.50;99.90;;;;;;8379712;28;20570;-70
2022/11/03 07:00:50;;;;;;;13.17;6.00;;;1.60;99.90;;;;;;8413376;28;20248;-68
2022/11/03 07:04:51;;;;;;;9.47;5.33;;;1.80;99.90;;;;;;8415154;28;20227;-69
2022/11/03 07:08:57;;;;;;;7.03;4.27;;;1.90;99.90;;;;;;8411501;28;20177;-69
2022/11/03 07:13:03;;;;;;;9.30;5.70;;;2.00;99.90;;;;;;8413356;28;20215;-69
2022/11/03 07:17:06;;;;;;;7.73;5.07;;;2.20;99.90;;;;;;8413215;28;20200;-70
2022/11/03 07:21:35;;;;;;;9.80;5.47;;;2.40;99.90;;;;;;8413992;28;20195;-69
2022/11/03 07:25:35;;;;;;;10.57;5.30;;;2.70;99.90;;;;;;8415192;28;20180;-68
2022/11/03 07:29:36;;;;;;;13.07;8.03;;;3.00;99.90;;;;;;8396868;28;20196;-69
2022/11/03 07:33:37;;;;;;;12.80;8.20;;;3.40;99.90;;;;;;8395580;28;20186;-68
2022/11/03 07:37:38;;;;;;;12.93;8.07;;;3.80;99.90;;;;;;8413704;28;20325;-69
2022/11/03 07:41:39;;;;;;;10.10;6.63;;;4.20;99.90;;;;;;8414731;28;20187;-68
2022/11/03 07:45:41;;;;;;;24.73;15.07;;;4.60;99.90;;;;;;8396921;28;20202;-69
2022/11/03 07:49:42;;;;;;;16.50;10.60;;;4.90;99.90;;;;;;8410884;28;20268;-71
2022/11/03 07:53:45;;;;;;;46.37;18.57;;;5.30;99.90;;;;;;8414201;28;20192;-69
2022/11/03 07:57:47;;;;;;;32.50;16.70;;;5.60;99.90;;;;;;8410169;28;20212;-70
2022/11/03 08:01:52;;;;;;;15.80;11.87;;;5.90;99.90;;;;;;8397263;28;20181;-68
2022/11/03 08:05:53;;;;;;;14.83;7.83;;;6.30;99.90;;;;;;8393493;28;20188;-68
2022/11/03 08:09:54;;;;;;;12.63;7.97;;;6.60;99.90;;;;;;8413219;28;20195;-68
2022/11/03 08:13:55;;;;;;;19.63;9.40;;;6.80;99.90;;;;;;8414814;28;20208;-69
2022/11/03 08:17:56;;;;;;;18.47;8.47;;;6.90;99.90;;;;;;8412824;28;20196;-68
2022/11/03 08:21:57;;;;;;;7.40;4.70;;;7.00;99.90;;;;;;8413772;28;20188;-68
2022/11/03 08:25:57;;;;;;;17.07;7.70;;;7.10;99.90;;;;;;8412122;28;20222;-68
2022/11/03 08:29:58;;;;;;;12.07;6.80;;;7.20;99.90;;;;;;8394865;28;20579;-69
2022/11/03 08:33:59;;;;;;;14.80;7.50;;;7.30;99.90;;;;;;8401568;28;20192;-68
2022/11/03 08:38:00;;;;;;;9.77;6.33;;;7.40;99.90;;;;;;8399381;28;20200;-68
2022/11/03 08:42:00;;;;;;;13.93;7.90;;;7.60;99.90;;;;;;8419164;28;20202;-69
2022/11/03 08:46:01;;;;;;;15.93;6.83;;;7.60;99.90;;;;;;8420263;28;20184;-69
2022/11/03 08:50:03;;;;;;;33.73;18.43;;;7.70;99.90;;;;;;8400925;28;20196;-68
2022/11/03 08:54:04;;;;;;;28.43;15.23;;;7.90;99.90;;;;;;8417899;28;20253;-69
2022/11/03 08:58:05;;;;;;;16.00;9.07;;;8.10;99.90;;;;;;8399288;28;20200;-69
2022/11/03 09:02:05;;;;;;;7.20;4.33;;;8.30;99.90;;;;;;8416847;28;20234;-68
2022/11/03 09:06:07;;;;;;;6.80;4.20;;;8.50;99.90;;;;;;8417291;28;20194;-69
2022/11/03 09:10:10;;;;;;;16.03;8.63;;;8.60;99.90;;;;;;8398764;28;20216;-68
2022/11/03 09:14:11;;;;;;;38.30;19.87;;;8.80;59.40;;;;;;8399754;28;20279;-68
2022/11/03 09:18:11;;;;;;;30.97;10.97;;;9.00;15.60;;;;;;8415799;28;20189;-68
2022/11/03 09:22:12;;;;;;;18.67;7.93;;;9.20;99.90;;;;;;8416777;28;20346;-67
2022/11/03 09:26:13;;;;;;;10.60;4.77;;;9.30;99.90;;;;;;8400602;28;20262;-69
2022/11/03 09:30:14;;;;;;;12.53;6.43;;;9.40;99.90;;;;;;8400291;28;20212;-68
2022/11/03 09:34:15;;;;;;;7.60;4.53;;;9.60;80.30;;;;;;8420180;28;20191;-68
2022/11/03 09:38:16;;;;;;;18.47;11.47;;;9.70;99.90;;;;;;8416672;28;20219;-68
2022/11/03 09:42:17;;;;;;;32.40;16.47;;;9.90;1.00;;;;;;8399243;28;20230;-68
2022/11/03 09:46:18;;;;;;;7.23;4.40;;;10.10;99.90;;;;;;8396243;28;20198;-68
2022/11/03 09:50:20;;;;;;;7.60;3.83;;;10.30;1.00;;;;;;8397843;28;20256;-68
2022/11/03 09:54:20;;;;;;;9.00;4.77;;;10.50;1.00;;;;;;8396807;28;20249;-68
2022/11/03 09:58:21;;;;;;;8.33;4.10;;;10.60;99.90;;;;;;8413882;28;20209;-68
2022/11/03 10:02:28;;;;;;;8.70;4.33;;;10.80;64.50;;;;;;8399403;28;20226;-69
2022/11/03 10:06:29;;;;;;;11.90;3.93;;;11.00;1.00;;;;;;8416323;28;20199;-68
2022/11/03 10:10:32;;;;;;;7.17;4.73;;;11.20;1.00;;;;;;8415557;28;20196;-68
2022/11/03 10:14:32;;;;;;;9.63;5.80;;;11.30;99.90;;;;;;8390715;28;20684;-68
2022/11/03 10:18:35;;;;;;;5.37;3.33;;;11.50;99.90;;;;;;8398338;28;20234;-68
2022/11/03 10:22:36;;;;;;;7.23;3.57;;;11.60;99.90;;;;;;8415601;28;20204;-68
2022/11/03 10:26:47;;;;;;;6.70;3.40;;;11.60;99.90;;;;;;8414541;28;20218;-68
2022/11/03 10:30:57;;;;;;;6.43;3.10;;;11.70;99.90;;;;;;8397379;28;20207;-68
2022/11/03 10:34:58;;;;;;;5.37;3.23;;;11.80;99.90;;;;;;8416670;28;20242;-68
2022/11/03 10:39:00;;;;;;;5.77;3.30;;;11.90;99.90;;;;;;8396443;28;20191;-68
2022/11/03 10:43:01;;;;;;;5.20;2.93;;;12.00;2.00;;;;;;8397375;28;20185;-68
2022/11/03 10:47:04;;;;;;;6.07;3.03;;;12.10;1.00;;;;;;8394582;28;20245;-67
2022/11/03 10:51:08;;;;;;;7.53;3.43;;;12.30;1.00;;;;;;8414559;28;20260;-68
2022/11/03 10:55:10;;;;;;;3.67;2.33;;;12.50;1.00;;;;;;8412102;28;20208;-68
2022/11/03 10:59:30;;;;;;;6.07;3.20;;;12.60;1.00;;;;;;8409651;28;20205;-67
2022/11/03 11:03:32;;;;;;;7.47;3.63;;;12.80;1.00;;;;;;8414041;28;20212;-68
2022/11/03 11:07:41;;;;;;;5.70;3.23;;;13.00;99.90;;;;;;8394356;28;20285;-67
2022/11/03 11:12:02;;;;;;;4.87;2.80;;;13.10;99.90;;;;;;8394427;28;20188;-68
2022/11/03 11:16:03;;;;;;;6.23;2.90;;;13.10;99.90;;;;;;8413096;28;20226;-68
2022/11/03 11:20:27;;;;;;;5.30;3.07;;;13.20;99.90;;;;;;8396676;28;20536;-68
2022/11/03 11:24:43;;;;;;;8.07;3.00;;;13.40;99.90;;;;;;8413554;28;20188;-67
2022/11/03 11:29:05;;;;;;;6.67;2.70;;;13.40;99.90;;;;;;8393808;28;20190;-68
2022/11/03 11:33:20;;;;;;;5.40;2.90;;;13.50;99.90;;;;;;8395297;28;20199;-67
2022/11/03 11:37:21;;;;;;;8.03;2.83;;;13.60;99.90;;;;;;8412073;28;20216;-68
2022/11/03 11:42:01;;;;;;;5.50;2.57;;;13.60;99.90;;;;;;8394554;28;20215;-68
2022/11/03 11:46:33;;;;;;;7.33;2.77;;;13.70;99.90;;;;;;8411574;28;20258;-68
2022/11/03 11:50:34;;;;;;;5.03;1.90;;;13.80;99.90;;;;;;8403215;28;20187;-68
2022/11/03 11:54:35;;;;;;;4.33;1.73;;;13.80;99.90;;;;;;8412101;28;20215;-67
2022/11/03 11:58:44;;;;;;;6.43;2.37;;;13.90;99.90;;;;;;8385672;28;20204;-68
2022/11/03 12:02:46;;;;;;;4.20;1.90;;;14.00;99.90;;;;;;8410208;28;20211;-68
2022/11/03 12:06:47;;;;;;;4.33;2.07;;;14.10;99.90;;;;;;8391281;28;20319;-68
2022/11/03 12:10:57;;;;;;;8.77;2.17;;;14.20;99.90;;;;;;8397005;28;20218;-68
2022/11/03 12:14:58;;;;;;;8.50;2.93;;;14.30;99.90;;;;;;8411579;28;20208;-68
2022/11/03 12:19:37;;;;;;;4.30;2.00;;;14.20;99.90;;;;;;8394343;28;20184;-68
2022/11/03 12:23:46;;;;;;;5.23;2.40;;;14.20;99.90;;;;;;8386868;28;20542;-68
2022/11/03 12:27:46;;;;;;;6.07;2.37;;;14.30;99.90;;;;;;8391213;28;20180;-68
2022/11/03 12:31:48;;;;;;;3.93;1.80;;;14.30;99.90;;;;;;8393730;28;20413;-68
2022/11/03 12:35:49;;;;;;;3.10;1.73;;;14.40;99.90;;;;;;8394213;28;20208;-69
2022/11/03 12:39:50;;;;;;;5.53;1.70;;;14.50;99.90;;;;;;8392538;28;20173;-67
2022/11/03 12:43:52;;;;;;;4.83;2.67;;;14.60;99.90;;;;;;8411162;28;20369;-68
2022/11/03 12:47:52;;;;;;;5.13;2.53;;;14.60;99.90;;;;;;8399434;28;20188;-68
2022/11/03 12:51:53;;;;;;;3.87;1.53;;;14.60;99.90;;;;;;8395557;28;20193;-68
2022/11/03 12:55:54;;;;;;;6.53;1.60;;;14.60;99.90;;;;;;8393015;28;20215;-69
2022/11/03 12:59:55;;;;;;;5.27;1.70;;;14.50;99.90;;;;;;8394067;28;21073;-68
2022/11/03 13:03:56;;;;;;;4.93;1.30;;;14.30;99.90;;;;;;8394717;28;20224;-69
2022/11/03 13:07:57;;;;;;;5.77;2.23;;;14.20;99.90;;;;;;8394464;28;20192;-69
2022/11/03 13:16:17;;;;;;;3.33;1.93;;;14.10;99.90;;;;;;8412282;28;20219;-69
2022/11/03 13:20:17;;;;;;;6.47;2.70;;;14.10;99.90;;;;;;8417358;28;20208;-69
2022/11/03 13:24:19;;;;;;;4.50;2.10;;;14.00;99.90;;;;;;8399026;28;20180;-69
2022/11/03 13:28:19;;;;;;;5.43;2.10;;;13.90;99.90;;;;;;8418468;28;20180;-69
2022/11/03 13:32:21;;;;;;;7.33;2.57;;;13.90;99.90;;;;;;8397864;28;20200;-70
2022/11/03 13:36:21;;;;;;;5.23;2.30;;;13.80;99.90;;;;;;8418298;28;20204;-69
2022/11/03 13:40:22;;;;;;;6.27;1.93;;;13.70;99.90;;;;;;8399030;28;20218;-69
2022/11/03 13:44:23;;;;;;;6.40;2.27;;;13.60;1.00;;;;;;8400303;28;20184;-68
2022/11/03 13:48:23;;;;;;;7.20;2.90;;;13.50;1.00;;;;;;8413770;28;20184;-69
2022/11/03 13:52:24;;;;;;;4.10;1.97;;;13.50;1.00;;;;;;8416955;28;20188;-69
2022/11/03 13:56:25;;;;;;;5.57;1.97;;;13.40;1.00;;;;;;8416399;28;20223;-68
2022/11/03 14:00:26;;;;;;;4.87;2.43;;;13.40;1.00;;;;;;8398334;28;20353;-69
2022/11/03 14:04:27;;;;;;;5.93;2.70;;;13.30;1.00;;;;;;8418736;28;20199;-70
2022/11/03 14:08:27;;;;;;;5.90;2.87;;;13.20;1.00;;;;;;8398216;28;20599;-71
2022/11/03 14:12:31;;;;;;;5.67;3.17;;;13.20;1.00;;;;;;8417240;28;20613;-69
2022/11/03 14:16:32;;;;;;;8.13;2.83;;;13.10;1.00;;;;;;8415669;28;20204;-69
2022/11/03 14:20:33;;;;;;;4.33;2.10;;;13.10;1.00;;;;;;8418150;28;20199;-68
2022/11/03 14:24:33;;;;;;;5.03;2.60;;;13.00;1.00;;;;;;8397375;28;20188;-69
2022/11/03 14:28:34;;;;;;;8.83;3.90;;;12.90;1.00;;;;;;8396155;28;20188;-70
2022/11/03 14:32:35;;;;;;;10.80;3.90;;;12.80;32.10;;;;;;8412634;28;20500;-69
2022/11/03 14:36:36;;;;;;;6.13;2.60;;;12.80;58.20;;;;;;8414188;28;20243;-69
2022/11/03 14:44:56;;;;;;;6.20;2.93;;;12.60;99.90;;;;;;8415742;28;20216;-70
2022/11/03 14:48:57;;;;;;;5.67;3.00;;;12.50;99.90;;;;;;8397021;28;20234;-68
2022/11/03 14:52:58;;;;;;;4.60;3.00;;;12.50;99.90;;;;;;8397785;28;20272;-69
2022/11/03 14:56:59;;;;;;;9.83;4.57;;;12.40;99.90;;;;;;8394728;28;20231;-70
2022/11/03 15:01:00;;;;;;;9.33;5.07;;;12.30;99.90;;;;;;8395822;28;20263;-70
2022/11/03 15:05:00;;;;;;;8.13;3.90;;;12.20;99.90;;;;;;8395521;28;20215;-69
2022/11/03 15:09:03;;;;;;;9.50;4.17;;;12.00;99.90;;;;;;8411967;28;20234;-70
2022/11/03 15:13:03;;;;;;;5.70;2.50;;;11.90;99.90;;;;;;8395582;28;20253;-68
2022/11/03 15:17:04;;;;;;;4.93;2.67;;;11.70;99.90;;;;;;8412921;28;20254;-70
2022/11/03 15:21:05;;;;;;;9.03;2.97;;;11.50;99.90;;;;;;8396141;28;20207;-69
2022/11/03 15:25:07;;;;;;;9.60;4.23;;;11.40;1.00;;;;;;8412073;28;20192;-70
2022/11/03 15:29:07;;;;;;;11.83;7.80;;;11.20;1.00;;;;;;8394819;28;20175;-70
2022/11/03 15:33:08;;;;;;;8.50;5.17;;;11.00;1.00;;;;;;8414134;28;20192;-69
2022/11/03 15:37:09;;;;;;;8.20;4.50;;;10.90;76.90;;;;;;8412744;28;20210;-69
2022/11/03 15:41:16;;;;;;;5.77;3.50;;;10.70;99.90;;;;;;8394556;28;20174;-68
2022/11/03 15:45:17;;;;;;;6.50;3.97;;;10.60;99.90;;;;;;8390556;28;20183;-70
2022/11/03 15:49:18;;;;;;;7.40;3.60;;;10.40;99.90;;;;;;8393873;28;20186;-70
2022/11/03 15:53:18;;;;;;;8.23;3.73;;;10.30;99.90;;;;;;8395650;28;20466;-70
2022/11/03 15:57:19;;;;;;;7.93;4.50;;;10.30;1.00;;;;;;8413335;28;20200;-69
2022/11/03 16:01:20;;;;;;;9.20;5.00;;;10.20;1.00;;;;;;8393557;28;20176;-70
2022/11/03 16:05:21;;;;;;;9.73;5.70;;;10.10;2.60;;;;;;8395458;28;20215;-69
2022/11/03 16:09:22;;;;;;;7.00;4.47;;;10.10;23.60;;;;;;8412156;28;20189;-70
2022/11/03 16:13:22;;;;;;;9.47;4.10;;;10.00;93.80;;;;;;8394703;28;20182;-67
2022/11/03 16:17:23;;;;;;;13.00;6.30;;;10.00;99.90;;;;;;8410970;28;20220;-69
2022/11/03 16:21:24;;;;;;;10.37;6.53;;;10.00;99.90;;;;;;8413083;28;20213;-69
2022/11/03 16:25:25;;;;;;;8.50;4.60;;;10.00;99.90;;;;;;8412464;28;20186;-69
2022/11/03 16:29:25;;;;;;;13.37;4.67;;;9.90;1.00;;;;;;8412913;28;20209;-68
2022/11/03 16:33:26;;;;;;;12.60;6.20;;;10.00;46.80;;;;;;8412179;28;20256;-70
2022/11/03 16:37:28;;;;;;;10.23;5.37;;;9.90;99.90;;;;;;8391005;28;20293;-70
2022/11/03 16:41:29;;;;;;;9.40;5.00;;;9.90;99.90;;;;;;8393280;28;20286;-69
2022/11/03 16:45:30;;;;;;;11.10;6.50;;;9.90;1.00;;;;;;8395108;28;20275;-70
2022/11/03 16:49:30;;;;;;;11.40;5.83;;;9.90;1.00;;;;;;8409480;28;20275;-70
2022/11/03 16:53:31;;;;;;;16.23;7.47;;;9.80;1.00;;;;;;8396217;28;20170;-68
2022/11/03 16:57:32;;;;;;;12.20;6.17;;;9.80;99.90;;;;;;8398508;28;20292;-70
2022/11/03 17:01:33;;;;;;;12.87;6.67;;;9.70;99.90;;;;;;8394478;28;20250;-70
2022/11/03 17:05:34;;;;;;;20.30;9.00;;;9.60;99.90;;;;;;8415434;28;20236;-70
2022/11/03 17:09:35;;;;;;;13.97;6.20;;;9.60;1.00;;;;;;8397585;28;20447;-69
2022/11/03 17:13:35;;;;;;;17.43;8.07;;;9.60;1.00;;;;;;8398168;28;20329;-69
2022/11/03 17:17:36;;;;;;;13.20;6.73;;;9.50;23.00;;;;;;8412732;28;20201;-69
2022/11/03 17:21:37;;;;;;;11.67;7.33;;;9.40;99.90;;;;;;8416193;28;20255;-69
2022/11/03 17:25:38;;;;;;;18.23;8.73;;;9.40;99.90;;;;;;8416037;28;20191;-70
2022/11/03 17:29:48;;;;;;;18.73;11.10;;;9.40;99.90;;;;;;8396612;28;20199;-69
2022/11/03 17:33:49;;;;;;;17.63;8.23;;;9.30;99.90;;;;;;8398014;28;20177;-69
2022/11/03 17:37:51;;;;;;;11.43;7.00;;;9.30;1.00;;;;;;8394265;28;20211;-69
2022/11/03 17:41:52;;;;;;;13.53;8.23;;;9.20;22.00;;;;;;8418454;28;20177;-69
2022/11/03 17:45:53;;;;;;;12.67;7.73;;;9.20;99.90;;;;;;8400474;28;20399;-71
2022/11/03 17:49:54;;;;;;;14.40;6.80;;;9.20;99.90;;;;;;8396884;28;20218;-69
2022/11/03 17:53:55;;;;;;;15.60;6.67;;;9.00;99.90;;;;;;8418150;28;20287;-69
2022/11/03 17:57:59;;;;;;;15.10;7.17;;;8.90;1.00;;;;;;8414699;28;20205;-69
2022/11/03 18:02:01;;;;;;;17.80;9.90;;;8.90;42.40;;;;;;8393273;28;20195;-70
2022/11/03 18:06:13;;;;;;;15.67;7.97;;;8.80;99.90;;;;;;8402322;28;20235;-70
2022/11/03 18:10:14;;;;;;;15.43;8.40;;;8.80;1.00;;;;;;8396513;28;20199;-69
2022/11/03 18:14:16;;;;;;;13.10;7.50;;;8.70;99.90;;;;;;8393320;28;20188;-69
2022/11/03 18:18:25;;;;;;;13.47;7.93;;;8.60;99.90;;;;;;8414789;28;20208;-69
2022/11/03 18:22:25;;;;;;;15.17;7.80;;;8.50;1.00;;;;;;8413041;28;20177;-70
2022/11/03 18:26:26;;;;;;;14.07;7.93;;;8.40;1.00;;;;;;8393237;28;20191;-69
2022/11/03 18:30:29;;;;;;;12.77;7.97;;;8.40;99.90;;;;;;8394931;28;20242;-69
2022/11/03 18:34:31;;;;;;;16.23;9.20;;;8.30;1.00;;;;;;8395541;28;20191;-70
2022/11/03 18:38:35;;;;;;;15.17;8.40;;;8.30;99.90;;;;;;8407961;28;20184;-70
2022/11/03 18:42:36;;;;;;;15.93;8.13;;;8.20;80.40;;;;;;8395702;28;20181;-70
2022/11/03 18:46:37;;;;;;;12.30;8.07;;;8.10;99.90;;;;;;8412177;28;20208;-70
2022/11/03 18:50:38;;;;;;;18.37;9.13;;;8.10;87.90;;;;;;8396856;28;20184;-69
2022/11/03 18:54:44;;;;;;;19.57;9.07;;;8.00;1.00;;;;;;8406638;28;20176;-70
2022/11/03 18:58:45;;;;;;;15.80;8.70;;;8.00;99.90;;;;;;8408126;28;20248;-70
2022/11/03 19:02:46;;;;;;;13.83;8.63;;;7.90;1.00;;;;;;8393733;28;20196;-70
2022/11/03 19:06:50;;;;;;;16.00;9.40;;;7.80;40.50;;;;;;8391450;28;20233;-70
2022/11/03 19:10:52;;;;;;;16.07;9.47;;;7.80;99.90;;;;;;8415306;28;20187;-70
2022/11/03 19:14:53;;;;;;;14.70;9.13;;;7.70;99.90;;;;;;8413104;28;20333;-69
2022/11/03 19:18:54;;;;;;;17.43;10.27;;;7.70;99.90;;;;;;8415076;28;20172;-69
2022/11/03 19:22:55;;;;;;;17.87;11.60;;;7.70;1.00;;;;;;8391892;28;20204;-70
2022/11/03 19:27:06;;;;;;;13.80;10.10;;;7.70;1.00;;;;;;8388050;28;20189;-70
2022/11/03 19:31:17;;;;;;;21.50;10.60;;;7.80;1.00;;;;;;8411635;28;20181;-70
2022/11/03 19:35:22;;;;;;;18.10;11.17;;;7.80;1.00;;;;;;8393894;28;20204;-70
2022/11/03 19:39:32;;;;;;;17.83;10.93;;;7.90;1.00;;;;;;8394284;28;20473;-70
2022/11/03 19:43:32;;;;;;;15.63;9.80;;;7.90;1.00;;;;;;8392482;28;20180;-70
2022/11/03 19:47:43;;;;;;;19.67;11.53;;;7.90;99.90;;;;;;8409738;28;20184;-70
2022/11/03 19:51:44;;;;;;;16.40;10.47;;;8.00;99.90;;;;;;8408339;28;20188;-70
2022/11/03 19:55:45;;;;;;;12.07;8.87;;;8.00;99.90;;;;;;8399856;28;20207;-70
2022/11/03 19:59:46;;;;;;;18.07;10.00;;;7.90;99.90;;;;;;8408946;28;20200;-70
2022/11/03 20:03:47;;;;;;;14.47;10.13;;;8.00;99.90;;;;;;8392996;28;20268;-70
2022/11/03 20:07:48;;;;;;;17.43;10.00;;;8.00;99.90;;;;;;8407274;28;20230;-70
2022/11/03 20:11:50;;;;;;;15.30;9.50;;;8.00;26.60;;;;;;8391358;28;20208;-69
2022/11/03 20:15:51;;;;;;;15.97;8.93;;;8.00;1.00;;;;;;8397156;28;20253;-70
2022/11/03 20:19:52;;;;;;;12.80;8.17;;;8.10;1.00;;;;;;8394329;28;20626;-69
2022/11/03 20:23:53;;;;;;;17.07;9.63;;;8.10;99.90;;;;;;8395921;28;20580;-70
2022/11/03 20:27:56;;;;;;;12.80;8.10;;;8.20;1.00;;;;;;8401581;28;20181;-69
2022/11/03 20:31:56;;;;;;;16.63;10.37;;;8.20;1.00;;;;;;8420877;28;20259;-70
2022/11/03 20:35:57;;;;;;;18.20;9.33;;;8.30;99.90;;;;;;8400324;28;20265;-68
2022/11/03 20:39:58;;;;;;;18.30;10.57;;;8.30;99.90;;;;;;8417412;28;20189;-68
2022/11/03 20:43:59;;;;;;;15.70;9.50;;;8.40;99.90;;;;;;8398588;28;20188;-68
2022/11/03 20:48:01;;;;;;;15.47;8.50;;;8.40;1.00;;;;;;8419269;28;20259;-68
2022/11/03 20:52:02;;;;;;;12.40;8.17;;;8.40;99.90;;;;;;8419999;28;20537;-69
2022/11/03 20:56:03;;;;;;;11.43;8.13;;;8.40;1.00;;;;;;8398460;28;20200;-68
2022/11/03 21:00:05;;;;;;;17.03;10.50;;;8.50;99.90;;;;;;8400088;28;20204;-68
2022/11/03 21:04:12;;;;;;;21.77;11.93;;;8.50;1.00;;;;;;8399393;28;20192;-69
2022/11/03 21:08:13;;;;;;;12.73;8.53;;;8.60;1.00;;;;;;8397958;28;20211;-69
2022/11/03 21:12:14;;;;;;;15.00;9.17;;;8.60;99.90;;;;;;8418843;28;20245;-68
2022/11/03 21:20:34;;;;;;;17.77;10.30;;;8.60;99.90;;;;;;8417457;28;20214;-69
2022/11/03 21:24:35;;;;;;;16.53;9.70;;;8.60;99.90;;;;;;8398372;28;20176;-69
2022/11/03 21:28:36;;;;;;;17.57;9.63;;;8.70;99.90;;;;;;8398990;28;20237;-70
2022/11/03 21:32:36;;;;;;;14.80;8.93;;;8.70;99.90;;;;;;8416795;28;20172;-70
2022/11/03 21:36:37;;;;;;;16.77;9.93;;;8.60;99.90;;;;;;8394158;28;20285;-70